Time;durP1;ratioP1;P1;durP2;ratioP2;P2;SDS_P1;SDS_P2;PMS_P1;PMS_P2;Temp;Humidity;BMP_temperature;BMP_pressure;BME280_temperature;BME280_humidity;BME280_pressure;Samples;Min_cycle;Max_cycle;Signal;HPM_P1;HPM_P2
2023/09/09 00:01:02;;;;;;;5.80;4.35;;;;;;;19.83;61.23;100381.72;10300118;28;20090;-60
2023/09/09 00:06:11;;;;;;;6.03;4.05;;;;;;;19.77;61.65;100378.88;10287675;28;20081;-60
2023/09/09 00:11:12;;;;;;;5.88;4.20;;;;;;;19.73;61.46;100377.69;10298177;28;20038;-59
2023/09/09 00:16:14;;;;;;;7.15;3.60;;;;;;;19.71;61.34;100377.09;10302886;28;20038;-59
2023/09/09 00:21:15;;;;;;;7.85;4.03;;;;;;;19.63;61.39;100369.25;10305049;28;20143;-59
2023/09/09 00:26:17;;;;;;;8.27;4.07;;;;;;;19.59;61.86;100370.78;10298623;28;20038;-62
2023/09/09 00:31:18;;;;;;;5.60;3.83;;;;;;;19.53;61.81;100369.81;10299746;28;20101;-61
2023/09/09 00:36:20;;;;;;;7.57;4.15;;;;;;;19.47;61.67;100361.72;10300444;28;20046;-61
2023/09/09 00:41:23;;;;;;;4.20;3.22;;;;;;;19.39;61.72;100357.44;10302173;28;20046;-62
2023/09/09 00:46:25;;;;;;;9.25;3.85;;;;;;;19.35;61.91;100359.84;10307041;28;20061;-61
2023/09/09 00:51:26;;;;;;;5.50;3.85;;;;;;;19.31;61.89;100366.81;10307090;28;20070;-61
2023/09/09 00:56:28;;;;;;;7.20;3.65;;;;;;;19.21;62.02;100361.94;10302059;28;20049;-62
2023/09/09 01:01:31;;;;;;;4.50;3.42;;;;;;;19.15;62.31;100362.03;10307292;28;20694;-61
2023/09/09 01:06:33;;;;;;;5.97;3.50;;;;;;;19.09;62.24;100361.03;10298868;28;20050;-60
2023/09/09 01:11:34;;;;;;;7.15;4.78;;;;;;;19.06;62.37;100360.72;10316650;28;20034;-64
2023/09/09 01:16:36;;;;;;;6.40;4.03;;;;;;;18.98;62.35;100362.69;10315322;28;20495;-61
2023/09/09 01:21:40;;;;;;;6.18;4.10;;;;;;;18.92;62.52;100357.34;10308724;28;20067;-60
2023/09/09 01:26:43;;;;;;;5.68;3.78;;;;;;;18.85;62.62;100362.88;10310359;28;20053;-62
2023/09/09 01:31:44;;;;;;;7.22;3.75;;;;;;;18.74;62.55;100353.56;10307965;28;20130;-61
2023/09/09 01:36:47;;;;;;;9.88;4.35;;;;;;;18.69;62.94;100358.84;10307974;28;20058;-60
2023/09/09 01:41:49;;;;;;;5.65;3.85;;;;;;;18.68;63.08;100357.22;10309682;28;20052;-61
2023/09/09 01:46:50;;;;;;;8.32;4.28;;;;;;;18.66;63.15;100353.03;10305163;28;20407;-63
2023/09/09 01:51:52;;;;;;;6.75;5.10;;;;;;;18.65;63.07;100354.09;10307026;28;20046;-61
2023/09/09 01:56:53;;;;;;;9.55;4.78;;;;;;;18.60;63.13;100357.50;10287779;28;20072;-60
2023/09/09 02:01:56;;;;;;;9.32;4.70;;;;;;;18.52;63.53;100364.09;10306822;28;20046;-63
2023/09/09 02:06:57;;;;;;;9.63;5.15;;;;;;;18.50;63.70;100360.75;10301727;28;20379;-61
2023/09/09 02:11:58;;;;;;;7.90;5.57;;;;;;;18.51;63.88;100367.06;10302703;28;20045;-61
2023/09/09 02:17:00;;;;;;;7.88;5.03;;;;;;;18.49;63.96;100366.44;10303227;28;20054;-62
2023/09/09 02:22:01;;;;;;;7.30;5.38;;;;;;;18.51;64.04;100359.72;10303558;28;20889;-60
2023/09/09 02:27:03;;;;;;;9.80;5.25;;;;;;;18.48;64.26;100368.31;10289278;28;20058;-61
2023/09/09 02:32:04;;;;;;;9.30;4.90;;;;;;;18.39;64.54;100366.97;10308593;28;20053;-61
2023/09/09 02:37:17;;;;;;;7.60;5.55;;;;;;;18.32;64.75;100364.31;10310596;28;20046;-60
2023/09/09 02:42:23;;;;;;;8.50;4.78;;;;;;;18.27;64.85;100357.91;10313573;28;20169;-61
2023/09/09 02:47:24;;;;;;;8.02;5.07;;;;;;;18.28;64.76;100360.38;10307164;28;20068;-60
2023/09/09 02:52:26;;;;;;;7.22;4.30;;;;;;;18.26;64.83;100357.06;10303955;28;20504;-61
2023/09/09 02:57:27;;;;;;;7.60;5.13;;;;;;;18.24;64.77;100360.00;10304551;28;20038;-63
2023/09/09 03:02:29;;;;;;;7.88;5.43;;;;;;;18.16;65.17;100362.19;10307688;28;20038;-60
2023/09/09 03:07:30;;;;;;;7.82;5.53;;;;;;;18.12;65.16;100364.53;10299389;28;20129;-61
2023/09/09 03:12:32;;;;;;;9.43;5.05;;;;;;;18.11;65.08;100362.03;10304908;28;20044;-62
2023/09/09 03:17:33;;;;;;;9.55;5.50;;;;;;;18.10;65.17;100363.09;10300587;28;20704;-61
2023/09/09 03:22:35;;;;;;;8.38;5.45;;;;;;;18.08;65.05;100367.94;10302005;28;20043;-62
2023/09/09 03:27:37;;;;;;;7.80;5.53;;;;;;;18.05;65.17;100361.06;10303351;28;20143;-63
2023/09/09 03:32:38;;;;;;;8.20;5.50;;;;;;;18.02;65.07;100358.78;10307135;28;20039;-62
2023/09/09 03:37:40;;;;;;;10.20;5.65;;;;;;;17.99;65.20;100361.94;10285676;28;20129;-60
2023/09/09 03:42:41;;;;;;;10.23;5.50;;;;;;;17.96;65.30;100360.50;10310868;28;20066;-60
2023/09/09 03:47:43;;;;;;;7.47;5.63;;;;;;;17.95;65.46;100361.59;10309455;28;20122;-62
2023/09/09 03:52:44;;;;;;;9.20;5.03;;;;;;;17.89;65.53;100361.63;10299790;28;20131;-60
2023/09/09 03:57:45;;;;;;;6.55;4.82;;;;;;;17.84;65.47;100354.16;10306463;28;20047;-59
2023/09/09 04:02:47;;;;;;;10.43;5.45;;;;;;;17.82;65.38;100354.34;10297158;28;20400;-59
2023/09/09 04:07:48;;;;;;;9.93;5.13;;;;;;;17.79;65.55;100364.81;10298449;28;20039;-59
2023/09/09 04:12:50;;;;;;;6.18;5.45;;;;;;;17.76;65.64;100359.84;10301558;28;20141;-60
2023/09/09 04:17:51;;;;;;;9.25;5.60;;;;;;;17.76;65.78;100368.00;10301383;28;20047;-59
2023/09/09 04:22:53;;;;;;;7.78;5.40;;;;;;;17.73;65.89;100365.72;10294049;28;20042;-60
2023/09/09 04:27:55;;;;;;;9.48;5.72;;;;;;;17.71;65.89;100368.66;10283901;28;20177;-59
2023/09/09 04:32:58;;;;;;;8.65;5.78;;;;;;;17.66;65.88;100373.94;10301696;28;20038;-60
2023/09/09 04:38:00;;;;;;;9.48;5.40;;;;;;;17.65;65.89;100375.00;10302697;28;20054;-59
2023/09/09 04:43:02;;;;;;;10.95;5.95;;;;;;;17.60;65.78;100381.09;10297798;28;20042;-59
2023/09/09 04:48:05;;;;;;;8.23;5.43;;;;;;;17.59;65.70;100384.84;10308279;28;20053;-60
2023/09/09 04:53:07;;;;;;;8.70;5.80;;;;;;;17.55;65.76;100375.47;10293804;28;20039;-60
2023/09/09 04:58:10;;;;;;;11.95;6.78;;;;;;;17.55;65.73;100380.91;10294715;28;20050;-61
2023/09/09 05:03:11;;;;;;;8.07;5.57;;;;;;;17.55;65.71;100386.34;10298024;28;20045;-67
2023/09/09 05:08:13;;;;;;;8.98;6.15;;;;;;;17.51;65.85;100385.13;10294583;28;20077;-65
2023/09/09 05:13:14;;;;;;;13.25;7.47;;;;;;;17.52;66.21;100392.25;10292121;28;20049;-69
2023/09/09 05:18:16;;;;;;;9.18;6.00;;;;;;;17.53;66.28;100396.63;10299711;28;20051;-66
2023/09/09 05:23:18;;;;;;;10.00;6.13;;;;;;;17.56;66.36;100407.06;10298432;28;20039;-65
2023/09/09 05:28:19;;;;;;;9.88;6.35;;;;;;;17.56;66.51;100404.34;10296368;28;20137;-68
2023/09/09 05:33:21;;;;;;;10.77;6.82;;;;;;;17.63;66.42;100402.41;10298446;28;20680;-64
2023/09/09 05:38:22;;;;;;;12.20;6.95;;;;;;;17.62;66.74;100406.19;10297915;28;20042;-69
2023/09/09 05:43:24;;;;;;;10.07;6.30;;;;;;;17.67;66.63;100405.50;10271989;28;20130;-66
2023/09/09 05:48:26;;;;;;;11.98;6.57;;;;;;;17.70;66.91;100402.34;10305701;28;20047;-68
2023/09/09 05:53:27;;;;;;;11.27;7.53;;;;;;;17.80;66.80;100413.56;10309687;28;20114;-66
2023/09/09 05:58:29;;;;;;;11.60;6.60;;;;;;;17.90;66.68;100406.81;10304803;28;20052;-69
2023/09/09 06:03:32;;;;;;;12.68;6.35;;;;;;;18.03;66.54;100415.69;10304035;28;20122;-66
2023/09/09 06:08:33;;;;;;;10.20;5.95;;;;;;;18.15;66.56;100418.50;10308379;28;20046;-70
2023/09/09 06:13:35;;;;;;;12.25;6.80;;;;;;;18.28;66.53;100425.69;10304979;28;20111;-66
2023/09/09 06:18:37;;;;;;;12.02;6.18;;;;;;;18.39;66.48;100424.97;10308082;28;20054;-69
2023/09/09 06:23:38;;;;;;;6.32;5.28;;;;;;;18.51;66.25;100430.50;10302199;28;20442;-67
2023/09/09 06:28:40;;;;;;;9.55;5.65;;;;;;;18.63;66.45;100430.56;10308895;28;20054;-69
2023/09/09 06:33:42;;;;;;;9.88;5.20;;;;;;;18.70;66.48;100431.34;10303458;28;20050;-66
2023/09/09 06:38:46;;;;;;;10.43;6.07;;;;;;;18.66;66.91;100441.03;10300861;28;20435;-67
2023/09/09 06:43:48;;;;;;;9.07;5.95;;;;;;;18.84;66.64;100445.66;10309440;28;20651;-67
2023/09/09 06:48:50;;;;;;;10.20;5.78;;;;;;;19.07;66.31;100444.91;10301037;28;20503;-69
2023/09/09 06:53:52;;;;;;;10.60;5.47;;;;;;;19.24;66.03;100455.19;10295819;28;20046;-65
2023/09/09 06:58:53;;;;;;;8.40;5.38;;;;;;;19.40;66.28;100455.38;10302668;28;20046;-68
2023/09/09 07:03:55;;;;;;;11.40;5.32;;;;;;;19.62;65.91;100452.94;10304148;28;20130;-65
2023/09/09 07:08:56;;;;;;;11.30;5.90;;;;;;;19.77;65.71;100462.63;10302312;28;20074;-61
2023/09/09 07:13:58;;;;;;;10.85;5.28;;;;;;;19.95;65.74;100459.81;10299919;28;20554;-60
2023/09/09 07:18:59;;;;;;;6.50;4.65;;;;;;;20.14;65.50;100459.69;10303930;28;20043;-60
2023/09/09 07:24:01;;;;;;;9.25;4.72;;;;;;;20.31;65.21;100457.09;10303144;28;20057;-62
2023/09/09 07:29:03;;;;;;;7.18;4.90;;;;;;;20.50;64.75;100452.34;10303027;28;20053;-62
2023/09/09 07:34:04;;;;;;;7.50;4.53;;;;;;;20.77;64.42;100452.66;10298878;28;20052;-61
2023/09/09 07:39:06;;;;;;;5.70;4.38;;;;;;;20.96;64.21;100456.06;10299709;28;20067;-61
2023/09/09 07:44:07;;;;;;;8.23;4.20;;;;;;;21.23;63.76;100448.13;10295721;28;20035;-61
2023/09/09 07:49:09;;;;;;;7.28;3.53;;;;;;;21.47;63.29;100450.78;10293743;28;20054;-62
2023/09/09 07:54:10;;;;;;;5.50;3.28;;;;;;;21.69;62.74;100453.63;10298480;28;20046;-61
2023/09/09 07:59:12;;;;;;;4.63;2.92;;;;;;;21.91;61.96;100449.06;10293867;28;20049;-64
2023/09/09 08:04:13;;;;;;;6.60;3.08;;;;;;;22.11;61.35;100454.03;10301547;28;20121;-63
2023/09/09 08:09:15;;;;;;;3.88;3.22;;;;;;;22.32;60.07;100447.00;10302894;28;20047;-60
2023/09/09 08:14:18;;;;;;;4.22;2.95;;;;;;;22.55;59.80;100447.84;10283529;28;20042;-60
2023/09/09 08:19:20;;;;;;;6.68;3.03;;;;;;;22.79;59.00;100456.69;10295809;28;20155;-59
2023/09/09 08:24:22;;;;;;;5.50;3.20;;;;;;;22.99;58.48;100456.13;10297634;28;20063;-59
2023/09/09 08:29:23;;;;;;;4.80;3.33;;;;;;;23.17;58.19;100458.53;10300395;28;20042;-61
2023/09/09 08:34:25;;;;;;;4.80;3.13;;;;;;;23.34;57.60;100452.13;10297343;28;20053;-58
2023/09/09 08:39:27;;;;;;;6.63;3.40;;;;;;;23.53;57.00;100455.34;10295253;28;20133;-59
2023/09/09 08:44:59;;;;;;;7.45;3.78;;;;;;;23.70;56.62;100460.72;10299058;28;20061;-60
2023/09/09 08:50:04;;;;;;;5.07;3.08;;;;;;;23.86;55.91;100465.28;10295770;28;20070;-59
2023/09/09 08:55:07;;;;;;;4.57;3.15;;;;;;;24.10;54.77;100473.16;10300235;28;20042;-60
2023/09/09 09:00:11;;;;;;;4.38;3.67;;;;;;;24.25;54.52;100472.44;10304389;28;20046;-60
2023/09/09 09:05:15;;;;;;;4.35;3.40;;;;;;;24.33;54.43;100461.78;10294006;28;20047;-60
2023/09/09 09:10:18;;;;;;;5.55;3.75;;;;;;;24.58;53.79;100464.97;10300301;28;20093;-59
2023/09/09 09:15:20;;;;;;;4.18;3.50;;;;;;;24.82;52.37;100471.72;10299074;28;20054;-59
2023/09/09 09:20:30;;;;;;;4.32;3.50;;;;;;;24.89;52.25;100461.28;10308292;28;20046;-58
2023/09/09 09:25:37;;;;;;;6.80;3.40;;;;;;;25.05;52.47;100456.66;10304995;28;20058;-61
2023/09/09 09:30:39;;;;;;;4.65;3.10;;;;;;;25.33;51.64;100455.38;10310478;28;20467;-60
2023/09/09 09:35:40;;;;;;;3.75;3.30;;;;;;;25.48;51.48;100460.13;10306759;28;20042;-60
2023/09/09 09:40:42;;;;;;;4.82;3.67;;;;;;;25.71;51.43;100449.66;10305787;28;20262;-60
2023/09/09 09:45:44;;;;;;;4.55;4.10;;;;;;;25.87;51.07;100450.50;10302067;28;20055;-58
2023/09/09 09:50:51;;;;;;;21.02;11.20;;;;;;;25.89;50.73;100445.56;10303715;28;20046;-59
2023/09/09 09:55:53;;;;;;;4.82;4.43;;;;;;;26.23;50.31;100442.25;10293626;28;20526;-61
2023/09/09 10:00:58;;;;;;;7.07;3.70;;;;;;;26.52;50.25;100442.44;10295466;28;20146;-60
2023/09/09 10:06:00;;;;;;;5.43;3.40;;;;;;;26.77;50.19;100441.56;10307128;28;20148;-61
2023/09/09 10:11:07;;;;;;;5.30;4.22;;;;;;;26.96;49.05;100433.47;10312244;28;20050;-61
2023/09/09 10:16:09;;;;;;;5.47;3.42;;;;;;;27.04;48.79;100435.63;10303055;28;20050;-60
2023/09/09 10:21:12;;;;;;;9.85;3.28;;;;;;;27.35;48.17;100445.69;10306627;28;20471;-61
2023/09/09 10:26:14;;;;;;;5.50;3.08;;;;;;;27.64;47.70;100440.25;10301592;28;20054;-60
2023/09/09 10:31:16;;;;;;;3.80;3.35;;;;;;;28.03;47.16;100442.16;10304203;28;20038;-60
2023/09/09 10:36:18;;;;;;;3.78;3.47;;;;;;;28.58;46.01;100428.91;10310030;28;20153;-61
2023/09/09 10:41:20;;;;;;;4.97;2.85;;;;;;;29.00;45.03;100427.25;10305883;28;20065;-61
2023/09/09 10:46:37;;;;;;;4.85;3.88;;;;;;;29.61;44.25;100413.63;10297059;28;20576;-61
2023/09/09 10:51:50;;;;;;;8.45;3.70;;;;;;;29.94;43.13;100406.16;10306135;28;20043;-61
2023/09/09 10:57:02;;;;;;;7.25;4.28;;;;;;;30.32;42.45;100416.31;10305454;28;20054;-61
2023/09/09 11:02:11;;;;;;;7.25;3.85;;;;;;;30.44;42.13;100422.19;10308102;28;20046;-61
2023/09/09 11:07:13;;;;;;;3.28;2.95;;;;;;;30.56;41.54;100416.13;10314738;28;20046;-59
2023/09/09 11:12:16;;;;;;;3.95;3.50;;;;;;;30.69;41.16;100420.84;10320386;28;20043;-59
2023/09/09 11:17:18;;;;;;;4.78;3.58;;;;;;;30.56;41.24;100416.13;10301465;28;20052;-60
2023/09/09 11:22:19;;;;;;;5.00;3.50;;;;;;;30.60;41.42;100411.59;10325210;28;20043;-61
2023/09/09 11:27:21;;;;;;;5.90;4.05;;;;;;;30.71;41.20;100417.72;10323530;28;20049;-61
2023/09/09 11:32:25;;;;;;;12.52;4.78;;;;;;;30.99;41.15;100404.69;10316057;28;20151;-61
2023/09/09 11:37:27;;;;;;;3.55;3.20;;;;;;;31.03;40.50;100412.06;10328010;28;20511;-61
2023/09/09 11:42:30;;;;;;;5.20;3.38;;;;;;;31.16;40.19;100413.19;10332709;28;20052;-61
2023/09/09 11:47:32;;;;;;;4.78;2.83;;;;;;;31.21;39.55;100407.50;10314149;28;20043;-61
2023/09/09 11:52:33;;;;;;;3.88;3.03;;;;;;;31.43;39.55;100408.66;10305038;28;20043;-63
2023/09/09 11:57:35;;;;;;;9.50;3.42;;;;;;;31.34;40.04;100405.81;10301435;28;20172;-67
2023/09/09 12:02:36;;;;;;;5.03;3.17;;;;;;;31.56;39.00;100402.25;10301875;28;20034;-66
2023/09/09 12:07:38;;;;;;;3.38;2.95;;;;;;;31.62;38.46;100402.94;10303761;28;20125;-67
2023/09/09 12:12:45;;;;;;;3.20;2.90;;;;;;;31.70;37.92;100393.84;10306602;28;20113;-67
2023/09/09 12:17:46;;;;;;;4.35;3.10;;;;;;;32.09;37.71;100391.44;10300944;28;20042;-70
2023/09/09 12:22:50;;;;;;;4.45;3.47;;;;;;;32.25;37.39;100389.06;10299747;28;20038;-69
2023/09/09 12:27:51;;;;;;;4.03;2.85;;;;;;;32.37;37.20;100378.97;10302042;28;20055;-61
2023/09/09 12:32:52;;;;;;;5.55;3.25;;;;;;;32.86;36.08;100372.56;10299498;28;20565;-62
2023/09/09 12:37:57;;;;;;;4.07;2.83;;;;;;;32.94;36.25;100368.97;10305140;28;20399;-59
2023/09/09 12:43:09;;;;;;;4.25;3.72;;;;;;;32.82;36.74;100366.00;10300482;28;20510;-61
2023/09/09 12:48:11;;;;;;;4.72;3.55;;;;;;;32.72;36.17;100367.97;10300598;28;20043;-60
2023/09/09 12:53:14;;;;;;;4.63;3.00;;;;;;;32.58;36.10;100367.28;10315411;28;20061;-61
2023/09/09 12:58:15;;;;;;;5.63;3.30;;;;;;;32.62;36.42;100373.00;10316630;28;20047;-61
2023/09/09 13:03:17;;;;;;;5.57;3.53;;;;;;;32.68;35.74;100368.94;10315249;28;20069;-60
2023/09/09 13:08:19;;;;;;;4.65;3.05;;;;;;;32.84;36.00;100370.13;10309737;28;20140;-61
2023/09/09 13:13:20;;;;;;;6.47;3.08;;;;;;;32.97;35.45;100369.13;10314043;28;20056;-60
2023/09/09 13:18:22;;;;;;;5.40;3.80;;;;;;;33.05;36.00;100364.72;10311516;28;20042;-59
2023/09/09 13:23:23;;;;;;;5.80;3.20;;;;;;;33.12;35.20;100356.72;10313383;28;20108;-60
2023/09/09 13:28:25;;;;;;;5.38;3.40;;;;;;;33.05;34.93;100372.25;10308586;28;20129;-60
2023/09/09 13:33:26;;;;;;;3.40;3.10;;;;;;;33.16;35.11;100368.84;10305429;28;20121;-59
2023/09/09 13:38:28;;;;;;;5.88;3.50;;;;;;;33.17;35.29;100362.13;10307703;28;20515;-58
2023/09/09 13:43:30;;;;;;;5.63;3.42;;;;;;;33.26;34.50;100353.78;10312549;28;20038;-59
2023/09/09 13:48:32;;;;;;;6.03;2.83;;;;;;;33.32;33.73;100354.41;10313397;28;20081;-59
2023/09/09 13:53:33;;;;;;;4.45;3.33;;;;;;;33.38;33.73;100347.53;10318253;28;20061;-59
2023/09/09 13:58:34;;;;;;;12.52;3.20;;;;;;;33.66;33.37;100344.38;10314578;28;20112;-60
2023/09/09 14:03:36;;;;;;;5.70;2.75;;;;;;;33.94;33.36;100340.00;10306983;28;20053;-60
2023/09/09 14:08:37;;;;;;;5.43;2.78;;;;;;;34.35;33.63;100343.31;10301680;28;20129;-60
2023/09/09 14:13:39;;;;;;;5.80;2.65;;;;;;;35.03;32.90;100333.97;10292934;28;20137;-61
2023/09/09 14:18:41;;;;;;;18.90;3.45;;;;;;;35.54;32.19;100331.88;10305488;28;20050;-59
2023/09/09 14:23:43;;;;;;;15.57;3.80;;;;;;;36.47;31.25;100329.41;10304172;28;20045;-60
2023/09/09 14:28:44;;;;;;;12.90;3.15;;;;;;;38.85;27.93;100317.75;10300392;28;20047;-60
2023/09/09 14:33:46;;;;;;;2.47;2.33;;;;;;;40.13;25.52;100319.75;10294427;28;20043;-59
2023/09/09 14:38:47;;;;;;;5.22;2.15;;;;;;;41.11;24.55;100305.84;10300809;28;20042;-60
2023/09/09 14:43:49;;;;;;;4.78;2.30;;;;;;;41.60;24.66;100318.88;10300655;28;20046;-62
2023/09/09 14:49:01;;;;;;;3.80;2.05;;;;;;;41.88;23.94;100309.88;10309695;28;20112;-61
2023/09/09 14:54:05;;;;;;;4.07;2.50;;;;;;;41.78;24.03;100296.47;10309390;28;20058;-60
2023/09/09 14:59:06;;;;;;;4.07;1.77;;;;;;;41.55;24.50;100302.28;10301296;28;20057;-62
2023/09/09 15:04:07;;;;;;;2.30;2.10;;;;;;;40.32;24.52;100311.22;10302701;28;20444;-66
2023/09/09 15:09:09;;;;;;;4.32;2.47;;;;;;;39.30;26.12;100300.56;10301161;28;20141;-68
2023/09/09 15:14:10;;;;;;;3.55;2.38;;;;;;;38.61;26.83;100304.78;10285307;28;20585;-67
2023/09/09 15:19:12;;;;;;;3.83;2.72;;;;;;;38.09;27.21;100303.97;10301919;28;20373;-68
2023/09/09 15:24:14;;;;;;;4.10;2.60;;;;;;;37.72;27.76;100303.44;10298631;28;20539;-67
2023/09/09 15:29:15;;;;;;;3.25;2.15;;;;;;;37.16;28.74;100300.69;10295805;28;20043;-66
2023/09/09 15:34:17;;;;;;;6.82;2.33;;;;;;;36.98;28.90;100306.56;10303137;28;20049;-60
2023/09/09 15:39:18;;;;;;;3.95;2.47;;;;;;;36.80;29.05;100300.44;10308629;28;20050;-60
2023/09/09 15:44:20;;;;;;;2.55;2.03;;;;;;;36.69;29.04;100299.28;10305224;28;20054;-62
2023/09/09 15:49:22;;;;;;;4.22;2.75;;;;;;;36.48;29.27;100310.66;10302508;28;20047;-61
2023/09/09 15:54:24;;;;;;;4.22;2.33;;;;;;;36.57;29.87;100297.31;10298765;28;20038;-69
2023/09/09 15:59:25;;;;;;;3.55;2.45;;;;;;;36.61;29.86;100303.03;10297149;28;20038;-72
2023/09/09 16:04:27;;;;;;;2.72;2.45;;;;;;;36.61;29.50;100300.22;10297805;28;20038;-68
2023/09/09 16:09:28;;;;;;;3.25;2.38;;;;;;;36.64;30.03;100302.38;10299890;28;20534;-68
2023/09/09 16:14:30;;;;;;;6.45;2.10;;;;;;;36.57;29.76;100296.50;10305612;28;20061;-69
2023/09/09 16:19:31;;;;;;;9.80;2.70;;;;;;;36.64;29.57;100296.75;10303961;28;20656;-65
2023/09/09 16:24:33;;;;;;;4.60;2.95;;;;;;;36.65;29.68;100299.22;10295021;28;20149;-73
2023/09/09 16:29:35;;;;;;;5.25;2.15;;;;;;;36.70;30.02;100300.94;10298606;28;20127;-68
2023/09/09 16:34:36;;;;;;;3.20;2.60;;;;;;;36.64;29.98;100303.16;10294918;28;20047;-69
2023/09/09 16:39:38;;;;;;;5.20;2.40;;;;;;;36.63;29.66;100309.09;10302242;28;20047;-68
2023/09/09 16:44:39;;;;;;;3.58;2.45;;;;;;;36.60;29.81;100307.81;10287473;28;20399;-69
2023/09/09 16:49:42;;;;;;;2.38;2.17;;;;;;;36.50;29.38;100309.13;10301757;28;20075;-70
2023/09/09 16:54:44;;;;;;;6.03;2.35;;;;;;;36.18;29.79;100322.13;10296724;28;20132;-66
2023/09/09 16:59:45;;;;;;;7.38;2.47;;;;;;;35.66;30.08;100325.50;10299959;28;20491;-70
2023/09/09 17:04:46;;;;;;;8.55;2.75;;;;;;;35.04;31.08;100330.03;10299774;28;20034;-66
2023/09/09 17:09:48;;;;;;;7.88;2.50;;;;;;;34.46;31.83;100324.19;10299045;28;20046;-61
2023/09/09 17:14:49;;;;;;;9.30;2.58;;;;;;;33.89;32.90;100328.25;10293461;28;20046;-62
2023/09/09 17:19:51;;;;;;;8.63;2.72;;;;;;;33.35;33.32;100332.25;10296586;28;20061;-60
2023/09/09 17:24:53;;;;;;;2.90;2.50;;;;;;;32.89;33.91;100335.72;10290722;28;20705;-61
2023/09/09 17:29:54;;;;;;;5.32;2.55;;;;;;;32.43;34.52;100337.91;10291393;28;20500;-63
2023/09/09 17:34:57;;;;;;;4.60;2.60;;;;;;;32.01;34.36;100346.63;10302178;28;20110;-61
2023/09/09 17:39:58;;;;;;;3.03;2.05;;;;;;;31.65;35.20;100341.16;10301275;28;20050;-61
2023/09/09 17:45:00;;;;;;;3.35;2.40;;;;;;;31.36;35.66;100339.66;10301943;28;20051;-64
2023/09/09 17:50:03;;;;;;;3.20;2.90;;;;;;;31.09;36.60;100348.09;10303188;28;20652;-60
2023/09/09 17:55:04;;;;;;;3.35;3.10;;;;;;;30.77;37.66;100349.91;10300568;28;20049;-63
2023/09/09 18:00:07;;;;;;;5.35;4.22;;;;;;;30.42;38.94;100346.75;10293649;28;20671;-62
2023/09/09 18:05:09;;;;;;;9.02;3.50;;;;;;;30.07;39.52;100360.19;10306997;28;20046;-61
2023/09/09 18:10:10;;;;;;;8.27;3.72;;;;;;;29.66;40.47;100363.66;10302787;28;20114;-61
2023/09/09 18:15:12;;;;;;;4.43;3.72;;;;;;;29.38;41.38;100365.53;10808485;23;20053;-62
2023/09/09 18:20:13;;;;;;;10.73;3.75;;;;;;;29.12;41.44;100367.88;10320414;28;20110;-68
2023/09/09 18:25:15;;;;;;;4.70;3.35;;;;;;;28.84;42.42;100359.41;10305778;28;20042;-65
2023/09/09 18:30:18;;;;;;;9.05;6.80;;;;;;;28.39;43.08;100367.94;10308299;28;20911;-65
2023/09/09 18:35:19;;;;;;;7.35;3.88;;;;;;;28.11;43.52;100372.44;10307209;28;20057;-65
2023/09/09 18:40:21;;;;;;;13.20;4.93;;;;;;;27.97;43.94;100390.81;10304381;28;20064;-65
2023/09/09 18:45:22;;;;;;;6.00;4.75;;;;;;;27.82;44.49;100386.22;10301832;28;20045;-65
2023/09/09 18:50:25;;;;;;;4.20;3.30;;;;;;;27.56;45.19;100393.91;10305507;28;20053;-65
2023/09/09 18:55:27;;;;;;;4.65;3.30;;;;;;;27.32;45.96;100397.41;10311617;28;20054;-67
2023/09/09 19:00:28;;;;;;;5.97;4.55;;;;;;;26.94;47.08;100399.81;10307275;28;20134;-66
2023/09/09 19:05:32;;;;;;;9.85;4.30;;;;;;;26.72;48.17;100394.69;10287966;28;20054;-67
2023/09/09 19:10:34;;;;;;;8.57;5.50;;;;;;;26.67;48.29;100403.00;10302454;28;20038;-64
2023/09/09 19:15:39;;;;;;;9.48;5.22;;;;;;;26.53;49.21;100402.72;10300524;28;20043;-66
2023/09/09 19:20:40;;;;;;;9.10;5.32;;;;;;;26.38;49.59;100403.59;10298659;28;20038;-65
2023/09/09 19:25:41;;;;;;;9.50;5.40;;;;;;;26.25;50.49;100410.53;10294864;28;20043;-61
2023/09/09 19:30:43;;;;;;;11.75;5.93;;;;;;;26.15;50.26;100410.56;10301291;28;20134;-67
2023/09/09 19:35:44;;;;;;;11.50;6.45;;;;;;;26.01;50.84;100409.50;10301333;28;20702;-64
2023/09/09 19:40:46;;;;;;;10.18;5.32;;;;;;;25.87;51.12;100410.03;10305823;28;20042;-63
2023/09/09 19:45:48;;;;;;;6.88;5.38;;;;;;;25.72;52.09;100418.28;10298549;28;20066;-66
2023/09/09 19:50:50;;;;;;;7.38;5.10;;;;;;;25.60;52.46;100418.56;10298596;28;20169;-63
2023/09/09 19:55:51;;;;;;;5.68;4.85;;;;;;;25.46;52.74;100426.53;10297889;28;20056;-63
2023/09/09 20:00:53;;;;;;;10.32;5.70;;;;;;;25.35;52.72;100435.88;10270101;28;20487;-63
2023/09/09 20:05:54;;;;;;;6.65;5.28;;;;;;;25.25;53.08;100433.09;10281385;28;20051;-61
2023/09/09 20:10:59;;;;;;;9.82;5.80;;;;;;;25.18;53.51;100427.84;10298411;28;20547;-63
2023/09/09 20:16:01;;;;;;;8.98;4.72;;;;;;;25.01;53.73;100421.72;10299029;28;20145;-62
2023/09/09 20:21:03;;;;;;;8.73;5.65;;;;;;;24.88;53.85;100429.41;10297222;28;20565;-62
2023/09/09 20:26:04;;;;;;;8.27;6.40;;;;;;;24.81;54.34;100425.25;10296437;28;20046;-60
2023/09/09 20:31:06;;;;;;;7.75;5.63;;;;;;;24.67;54.28;100422.97;10286120;28;20070;-62
2023/09/09 20:36:08;;;;;;;9.55;5.63;;;;;;;24.50;54.57;100428.66;10300712;28;20058;-62
2023/09/09 20:41:09;;;;;;;7.85;5.68;;;;;;;24.32;55.06;100420.84;10293811;28;20077;-64
2023/09/09 20:46:12;;;;;;;9.00;6.00;;;;;;;24.20;55.29;100425.72;10296183;28;20046;-65
2023/09/09 20:51:13;;;;;;;10.77;6.00;;;;;;;24.05;55.12;100429.16;10294590;28;20043;-63
2023/09/09 20:56:15;;;;;;;14.35;6.95;;;;;;;23.75;55.87;100430.56;10297731;28;20603;-64
2023/09/09 21:01:16;;;;;;;10.55;7.00;;;;;;;23.66;56.45;100432.16;10294332;28;20047;-63
2023/09/09 21:06:18;;;;;;;8.38;6.15;;;;;;;23.64;56.46;100437.06;10297963;28;20042;-64
2023/09/09 21:11:19;;;;;;;8.05;6.50;;;;;;;23.57;56.42;100440.00;10295407;28;20069;-61
2023/09/09 21:16:21;;;;;;;9.95;7.35;;;;;;;23.46;56.92;100444.59;10300903;28;20053;-62
2023/09/09 21:21:22;;;;;;;8.32;5.97;;;;;;;23.38;56.89;100439.56;10301405;28;20042;-63
2023/09/09 21:26:23;;;;;;;14.38;6.22;;;;;;;23.26;57.16;100433.38;10301742;28;20042;-65
2023/09/09 21:31:25;;;;;;;7.97;5.85;;;;;;;23.19;57.53;100447.31;10298402;28;20043;-62
2023/09/09 21:36:27;;;;;;;10.45;5.40;;;;;;;23.08;57.88;100442.81;10304490;28;20038;-63
2023/09/09 21:41:28;;;;;;;8.98;5.72;;;;;;;22.96;57.76;100443.72;10304090;28;20101;-64
2023/09/09 21:46:30;;;;;;;7.72;5.90;;;;;;;22.82;58.31;100442.47;10301698;28;20043;-64
2023/09/09 21:51:31;;;;;;;9.80;6.00;;;;;;;22.73;58.55;100441.28;10313681;28;20052;-61
2023/09/09 21:56:34;;;;;;;9.73;6.30;;;;;;;22.68;58.66;100439.28;10302226;28;20043;-62
2023/09/09 22:01:36;;;;;;;10.35;6.47;;;;;;;22.61;58.80;100446.03;10285663;28;20047;-63
2023/09/09 22:06:37;;;;;;;11.02;6.18;;;;;;;22.53;58.92;100447.28;10301218;28;20047;-62
2023/09/09 22:11:39;;;;;;;11.90;7.32;;;;;;;22.45;59.11;100444.97;10292266;28;20065;-62
2023/09/09 22:16:40;;;;;;;9.48;5.88;;;;;;;22.33;59.28;100445.09;10305338;28;20042;-62
2023/09/09 22:21:42;;;;;;;10.20;6.78;;;;;;;22.26;59.63;100444.47;10310914;28;20132;-63
2023/09/09 22:26:43;;;;;;;10.85;6.07;;;;;;;22.17;59.77;100449.47;10304392;28;20041;-63
2023/09/09 22:31:45;;;;;;;8.90;5.78;;;;;;;22.01;59.66;100453.88;10305737;28;20097;-62
2023/09/09 22:36:46;;;;;;;7.38;5.20;;;;;;;21.91;59.78;100453.72;10302320;28;21031;-61
2023/09/09 22:41:47;;;;;;;7.93;6.20;;;;;;;21.79;59.98;100448.34;10301708;28;20049;-63
2023/09/09 22:46:50;;;;;;;10.15;5.35;;;;;;;21.76;60.18;100441.47;10304311;28;20327;-63
2023/09/09 22:51:52;;;;;;;7.78;4.50;;;;;;;21.73;60.04;100436.47;10304376;28;20436;-62
2023/09/09 22:56:53;;;;;;;9.98;5.05;;;;;;;21.65;60.18;100447.00;10300249;28;20049;-63
2023/09/09 23:01:55;;;;;;;9.10;5.53;;;;;;;21.57;60.13;100451.78;10300935;28;20053;-62
2023/09/09 23:06:56;;;;;;;5.65;4.68;;;;;;;21.53;60.62;100449.81;10289443;28;20149;-62